Colorado Star — 9HA2189 — position and weather

sailwx.info

Track history (hours):
 
Tides and Currents Weather Stations Pressure Air Temp Water Temp Dewpoint Dewpoint Depression Visibility Wind Speed Wind Dir Waves Ship Positions

Colorado Star

Last reported at 2014-Aug-29 04:30 UTC. Time now 2014-Aug-29 05:31 UTC.
Position N 52°27' E 004°05'.

Length 128 m; draft 8.2 m.

Type: Ship. MMSI: 248127000.

Date/timePositionNaut miles runAvg speedWind from/ knotsBaromVisibWave heightAir tempDewpointWater temp
2014-Aug-29 04:30N 52°27' E 004°05'0 0.0
2014-Aug-29 03:33N 52°27' E 004°06'0 0.0
2014-Aug-29 02:27N 52°27' E 004°06'0 0.0
2014-Aug-29 01:33N 52°27' E 004°06'0 0.1
2014-Aug-29 00:33N 52°27' E 004°05'0 0.0
2014-Aug-28 23:33N 52°27' E 004°05'0 0.0
2014-Aug-28 22:33N 52°27' E 004°05'0 0.1
2014-Aug-28 21:33N 52°27' E 004°05'0 0.1
2014-Aug-28 20:33N 52°27' E 004°06'0 0.0
2014-Aug-28 19:33N 52°27' E 004°06'3 3.1
2014-Aug-28 18:33N 52°30' E 004°08'1010.0
2014-Aug-28 17:33N 52°39' E 004°02'10 9.7
2014-Aug-28 16:33N 52°49' E 003°58'10 9.4
2014-Aug-28 15:33N 52°58' E 003°60'1610.9
2014-Aug-28 14:07N 53°08' E 004°19'7010.3
2014-Aug-28 07:16N 53°46' E 005°59'1311.1
2014-Aug-28 06:05N 53°49' E 006°21'612.2
2014-Aug-28 05:33N 53°51' E 006°31'1312.6
2014-Aug-28 04:33N 53°54' E 006°52'1612.5
2014-Aug-28 03:18N 53°58' E 007°18'912.3
2014-Aug-28 02:33N 54°00' E 007°33'1211.7
2014-Aug-28 01:33N 54°01' E 007°53'1311.3
2014-Aug-28 00:24N 54°00' E 008°15'910.9
2014-Aug-27 23:33N 53°58' E 008°30'9 9.1
2014-Aug-27 22:33N 53°53' E 008°43'1110.8
2014-Aug-27 21:33N 53°51' E 009°01'5 5.2
2014-Aug-27 20:33N 53°54' E 009°09'4 3.5
2014-Aug-27 19:33N 53°56' E 009°13'8 8.1
2014-Aug-27 18:33N 54°03' E 009°19'6 5.7
2014-Aug-27 17:33N 54°09' E 009°22'2 2.5
2014-Aug-27 16:33N 54°10' E 009°25'5 4.8
2014-Aug-27 15:32N 54°12' E 009°33'65 7.2
2014-Aug-27 06:31N 54°34' E 011°17'1110.8
2014-Aug-27 05:32N 54°30' E 011°34'1111.4
2014-Aug-27 04:33N 54°26' E 011°52'1110.8
2014-Aug-27 03:33N 54°26' E 012°10'1111.3
2014-Aug-27 02:33N 54°37' E 012°17'1111.3
2014-Aug-27 01:33N 54°44' E 012°33'1110.8
2014-Aug-27 00:33N 54°47' E 012°51'1211.7
2014-Aug-26 23:33N 54°47' E 013°11'1212.0
2014-Aug-26 22:33N 54°46' E 013°32'1211.5
2014-Aug-26 21:33N 54°44' E 013°51'1111.4
2014-Aug-26 20:33N 54°41' E 014°10'1411.1
2014-Aug-26 19:15N 54°40' E 014°35'11510.4
2014-Aug-26 08:08N 54°56' E 017°53'610.6
2014-Aug-26 07:33N 54°57' E 018°04'1110.6
2014-Aug-26 06:33N 54°57' E 018°22'1010.1
2014-Aug-26 05:33N 54°55' E 018°39'1110.8
2014-Aug-26 04:33N 54°48' E 018°54'1110.7
2014-Aug-26 03:33N 54°40' E 019°06'1111.0
2014-Aug-26 02:33N 54°29' E 019°01'1010.2
2014-Aug-26 01:33N 54°24' E 018°46'2 1.6
2014-Aug-26 00:31N 54°24' E 018°43'0 0.0
2014-Aug-25 23:31N 54°24' E 018°43'0 0.0
2014-Aug-25 22:31N 54°24' E 018°43'0 0.0
2014-Aug-25 21:31N 54°24' E 018°43'0 0.0
2014-Aug-25 20:28N 54°24' E 018°43'0 0.0
2014-Aug-25 19:28N 54°24' E 018°43'0 0.0
2014-Aug-25 18:28N 54°24' E 018°43'0 0.0
2014-Aug-25 17:28N 54°24' E 018°43'0 0.0
2014-Aug-25 16:31N 54°24' E 018°43'0 0.0
2014-Aug-25 15:31N 54°24' E 018°43'0 0.0
2014-Aug-25 14:31N 54°24' E 018°43'0 0.0
2014-Aug-25 13:31N 54°24' E 018°43'0 0.0
2014-Aug-25 12:31N 54°24' E 018°43'0 0.0
2014-Aug-25 11:31N 54°24' E 018°43'0 0.0
2014-Aug-25 10:31N 54°24' E 018°43'0 0.0
2014-Aug-25 09:31N 54°24' E 018°43'0 0.0
2014-Aug-25 08:31N 54°24' E 018°43'0 0.0
2014-Aug-25 07:31N 54°24' E 018°43'0 0.0
2014-Aug-25 06:31N 54°24' E 018°43'0 0.0
2014-Aug-25 05:31N 54°24' E 018°43'0 0.0
2014-Aug-25 04:31N 54°24' E 018°43'0 0.0
2014-Aug-25 03:31N 54°24' E 018°43'0 0.0
2014-Aug-25 02:31N 54°24' E 018°43'0 0.0
2014-Aug-25 01:28N 54°24' E 018°43'0 0.0
2014-Aug-25 00:31N 54°24' E 018°43'0 0.0
2014-Aug-24 23:32N 54°24' E 018°43'2 1.9
2014-Aug-24 22:34N 54°25' E 018°46'9 9.3
2014-Aug-24 21:34N 54°30' E 018°59'1110.8
2014-Aug-24 20:34N 54°41' E 019°03'1111.4
2014-Aug-24 19:34N 54°52' E 019°09'1211.7
2014-Aug-24 18:34N 55°03' E 019°15'  
2014-Aug-21 08:12N 59°46' E 024°57'812.1
2014-Aug-21 07:30N 59°45' E 024°41'2411.9
2014-Aug-21 05:29N 59°38' E 023°56'1111.6
2014-Aug-21 04:32N 59°35' E 023°35'31211.5
2014-Aug-20 01:27N 55°58' E 016°33'2511.9
2014-Aug-19 23:19N 55°46' E 015°54'1411.6
2014-Aug-19 22:06N 55°39' E 015°32'611.6
2014-Aug-19 21:33N 55°36' E 015°22'1211.6
2014-Aug-19 20:33N 55°31' E 015°04'1111.5
2014-Aug-19 19:33N 55°25' E 014°46'1111.3
2014-Aug-19 18:32N 55°18' E 014°31'1211.3
2014-Aug-19 17:30N 55°08' E 014°18'2211.1
2014-Aug-19 15:32N 54°57' E 013°46'1111.8
2014-Aug-19 14:33N 54°54' E 013°27'1211.7
2014-Aug-19 13:33N 54°50' E 013°07'1111.5
2014-Aug-19 12:33N 54°46' E 012°48'1211.6
2014-Aug-19 11:33N 54°40' E 012°31'1111.2
2014-Aug-19 10:33N 54°32' E 012°17'1110.8
2014-Aug-19 09:33N 54°24' E 012°05'1212.0
2014-Aug-19 08:33N 54°26' E 011°45'  
Track history (hours):
 
Tides and Currents Weather Stations Pressure Air Temp Water Temp Dewpoint Dewpoint Depression Visibility Wind Speed Wind Dir Waves Ship Positions

Colorado Star

Last reported at 2014-Aug-29 04:30 UTC. Time now 2014-Aug-29 05:31 UTC.
Position N 52°27' E 004°05'.

Length 128 m; draft 8.2 m.

Type: Ship. MMSI: 248127000.

Date/timePositionNaut miles runAvg speedWind from/ knotsBaromVisibWave heightAir tempDewpointWater temp
2014-Aug-29 04:30N 52°27' E 004°05'0 0.0
2014-Aug-29 03:33N 52°27' E 004°06'0 0.0
2014-Aug-29 02:27N 52°27' E 004°06'0 0.0
2014-Aug-29 01:33N 52°27' E 004°06'0 0.1
2014-Aug-29 00:33N 52°27' E 004°05'0 0.0
2014-Aug-28 23:33N 52°27' E 004°05'0 0.0
2014-Aug-28 22:33N 52°27' E 004°05'0 0.1
2014-Aug-28 21:33N 52°27' E 004°05'0 0.1
2014-Aug-28 20:33N 52°27' E 004°06'0 0.0
2014-Aug-28 19:33N 52°27' E 004°06'3 3.1
2014-Aug-28 18:33N 52°30' E 004°08'1010.0
2014-Aug-28 17:33N 52°39' E 004°02'10 9.7
2014-Aug-28 16:33N 52°49' E 003°58'10 9.4
2014-Aug-28 15:33N 52°58' E 003°60'1610.9
2014-Aug-28 14:07N 53°08' E 004°19'7010.3
2014-Aug-28 07:16N 53°46' E 005°59'1311.1
2014-Aug-28 06:05N 53°49' E 006°21'612.2
2014-Aug-28 05:33N 53°51' E 006°31'1312.6
2014-Aug-28 04:33N 53°54' E 006°52'1612.5
2014-Aug-28 03:18N 53°58' E 007°18'912.3
2014-Aug-28 02:33N 54°00' E 007°33'1211.7
2014-Aug-28 01:33N 54°01' E 007°53'1311.3
2014-Aug-28 00:24N 54°00' E 008°15'910.9
2014-Aug-27 23:33N 53°58' E 008°30'9 9.1
2014-Aug-27 22:33N 53°53' E 008°43'1110.8
2014-Aug-27 21:33N 53°51' E 009°01'5 5.2
2014-Aug-27 20:33N 53°54' E 009°09'4 3.5
2014-Aug-27 19:33N 53°56' E 009°13'8 8.1
2014-Aug-27 18:33N 54°03' E 009°19'6 5.7
2014-Aug-27 17:33N 54°09' E 009°22'2 2.5
2014-Aug-27 16:33N 54°10' E 009°25'5 4.8
2014-Aug-27 15:32N 54°12' E 009°33'65 7.2
2014-Aug-27 06:31N 54°34' E 011°17'1110.8
2014-Aug-27 05:32N 54°30' E 011°34'1111.4
2014-Aug-27 04:33N 54°26' E 011°52'1110.8
2014-Aug-27 03:33N 54°26' E 012°10'1111.3
2014-Aug-27 02:33N 54°37' E 012°17'1111.3
2014-Aug-27 01:33N 54°44' E 012°33'1110.8
2014-Aug-27 00:33N 54°47' E 012°51'1211.7
2014-Aug-26 23:33N 54°47' E 013°11'1212.0
2014-Aug-26 22:33N 54°46' E 013°32'1211.5
2014-Aug-26 21:33N 54°44' E 013°51'1111.4
2014-Aug-26 20:33N 54°41' E 014°10'1411.1
2014-Aug-26 19:15N 54°40' E 014°35'11510.4
2014-Aug-26 08:08N 54°56' E 017°53'610.6
2014-Aug-26 07:33N 54°57' E 018°04'1110.6
2014-Aug-26 06:33N 54°57' E 018°22'1010.1
2014-Aug-26 05:33N 54°55' E 018°39'1110.8
2014-Aug-26 04:33N 54°48' E 018°54'1110.7
2014-Aug-26 03:33N 54°40' E 019°06'1111.0
2014-Aug-26 02:33N 54°29' E 019°01'1010.2
2014-Aug-26 01:33N 54°24' E 018°46'2 1.6
2014-Aug-26 00:31N 54°24' E 018°43'0 0.0
2014-Aug-25 23:31N 54°24' E 018°43'0 0.0
2014-Aug-25 22:31N 54°24' E 018°43'0 0.0
2014-Aug-25 21:31N 54°24' E 018°43'0 0.0
2014-Aug-25 20:28N 54°24' E 018°43'0 0.0
2014-Aug-25 19:28N 54°24' E 018°43'0 0.0
2014-Aug-25 18:28N 54°24' E 018°43'0 0.0
2014-Aug-25 17:28N 54°24' E 018°43'0 0.0
2014-Aug-25 16:31N 54°24' E 018°43'0 0.0
2014-Aug-25 15:31N 54°24' E 018°43'0 0.0
2014-Aug-25 14:31N 54°24' E 018°43'0 0.0
2014-Aug-25 13:31N 54°24' E 018°43'0 0.0
2014-Aug-25 12:31N 54°24' E 018°43'0 0.0
2014-Aug-25 11:31N 54°24' E 018°43'0 0.0
2014-Aug-25 10:31N 54°24' E 018°43'0 0.0
2014-Aug-25 09:31N 54°24' E 018°43'0 0.0
2014-Aug-25 08:31N 54°24' E 018°43'0 0.0
2014-Aug-25 07:31N 54°24' E 018°43'0 0.0
2014-Aug-25 06:31N 54°24' E 018°43'0 0.0
2014-Aug-25 05:31N 54°24' E 018°43'0 0.0
2014-Aug-25 04:31N 54°24' E 018°43'0 0.0
2014-Aug-25 03:31N 54°24' E 018°43'0 0.0
2014-Aug-25 02:31N 54°24' E 018°43'0 0.0
2014-Aug-25 01:28N 54°24' E 018°43'0 0.0
2014-Aug-25 00:31N 54°24' E 018°43'0 0.0
2014-Aug-24 23:32N 54°24' E 018°43'2 1.9
2014-Aug-24 22:34N 54°25' E 018°46'9 9.3
2014-Aug-24 21:34N 54°30' E 018°59'1110.8
2014-Aug-24 20:34N 54°41' E 019°03'1111.4
2014-Aug-24 19:34N 54°52' E 019°09'1211.7
2014-Aug-24 18:34N 55°03' E 019°15'  
2014-Aug-21 08:12N 59°46' E 024°57'812.1
2014-Aug-21 07:30N 59°45' E 024°41'2411.9
2014-Aug-21 05:29N 59°38' E 023°56'1111.6
2014-Aug-21 04:32N 59°35' E 023°35'31211.5
2014-Aug-20 01:27N 55°58' E 016°33'2511.9
2014-Aug-19 23:19N 55°46' E 015°54'1411.6
2014-Aug-19 22:06N 55°39' E 015°32'611.6
2014-Aug-19 21:33N 55°36' E 015°22'1211.6
2014-Aug-19 20:33N 55°31' E 015°04'1111.5
2014-Aug-19 19:33N 55°25' E 014°46'1111.3
2014-Aug-19 18:32N 55°18' E 014°31'1211.3
2014-Aug-19 17:30N 55°08' E 014°18'2211.1
2014-Aug-19 15:32N 54°57' E 013°46'1111.8
2014-Aug-19 14:33N 54°54' E 013°27'1211.7
2014-Aug-19 13:33N 54°50' E 013°07'1111.5
2014-Aug-19 12:33N 54°46' E 012°48'1211.6
2014-Aug-19 11:33N 54°40' E 012°31'1111.2
2014-Aug-19 10:33N 54°32' E 012°17'1110.8
2014-Aug-19 09:33N 54°24' E 012°05'1212.0
2014-Aug-19 08:33N 54°26' E 011°45'  

Dump ship's entire track history